createdAt,value
2022-08-05T00:02:07.424Z,2.30
2022-08-05T00:04:37.778Z,2.67
2022-08-05T00:07:27.039Z,2.50
2022-08-05T00:09:53.508Z,3.15
2022-08-05T00:12:21.450Z,2.85
2022-08-05T00:14:48.633Z,2.85
2022-08-05T00:17:28.550Z,3.00
2022-08-05T00:20:02.418Z,3.25
2022-08-05T00:22:29.539Z,3.25
2022-08-05T00:24:57.580Z,3.30
2022-08-05T00:27:35.801Z,3.85
2022-08-05T00:30:04.319Z,4.88
2022-08-05T00:32:30.818Z,3.95
2022-08-05T00:35:06.603Z,3.78
2022-08-05T00:37:51.159Z,4.28
2022-08-05T00:40:27.316Z,3.78
2022-08-05T00:42:56.793Z,4.13
2022-08-05T00:45:28.107Z,4.20
2022-08-05T00:48:07.353Z,4.43
2022-08-05T00:50:34.195Z,4.65
2022-08-05T00:53:00.935Z,4.50
2022-08-05T00:55:42.265Z,4.45
2022-08-05T00:58:11.561Z,4.90
2022-08-05T01:00:39.151Z,5.10
2022-08-05T01:03:07.651Z,5.03
2022-08-05T01:05:35.350Z,5.20
2022-08-05T01:08:40.069Z,4.90
2022-08-05T01:10:59.609Z,5.60
2022-08-05T01:13:59.187Z,4.90
2022-08-05T01:16:37.343Z,5.75
2022-08-05T01:19:56.213Z,6.07
2022-08-05T01:22:24.410Z,5.47
2022-08-05T01:25:15.602Z,4.95
2022-08-05T01:28:11.309Z,5.38
2022-08-05T01:30:50.610Z,4.88
2022-08-05T01:33:26.242Z,4.57
2022-08-05T01:35:55.635Z,4.72
2022-08-05T01:38:29.413Z,4.07
2022-08-05T01:41:01.403Z,3.90
2022-08-05T01:43:29.656Z,3.88
2022-08-05T01:45:57.857Z,4.30
2022-08-05T01:48:27.243Z,4.35
2022-08-05T01:50:56.315Z,4.47
2022-08-05T01:53:54.869Z,3.85
2022-08-05T01:56:13.958Z,3.95
2022-08-05T01:59:03.955Z,3.63
2022-08-05T02:01:39.726Z,3.70
2022-08-05T02:04:09.123Z,3.38
2022-08-05T02:06:38.969Z,3.35
2022-08-05T02:09:07.392Z,3.17
2022-08-05T02:11:47.758Z,3.72
2022-08-05T02:14:26.852Z,3.30
2022-08-05T02:16:55.841Z,3.58
2022-08-05T02:19:34.417Z,3.38
2022-08-05T02:22:09.069Z,3.50
2022-08-05T02:24:51.372Z,4.15
2022-08-05T02:27:21.572Z,3.63
2022-08-05T02:30:00.944Z,3.70
2022-08-05T02:32:31.428Z,3.60
2022-08-05T02:35:13.811Z,3.75
2022-08-05T02:37:47.828Z,3.13
2022-08-05T02:40:21.479Z,4.40
2022-08-05T02:42:53.062Z,3.95
2022-08-05T02:45:23.929Z,4.53
2022-08-05T02:48:07.033Z,4.22
2022-08-05T02:50:45.937Z,4.30
2022-08-05T02:53:16.046Z,3.97
2022-08-05T02:55:53.803Z,3.95
2022-08-05T02:58:26.497Z,4.57
2022-08-05T03:00:56.563Z,4.32
2022-08-05T03:03:23.865Z,4.50
2022-08-05T03:06:56.940Z,4.38
2022-08-05T03:08:42.378Z,5.20
2022-08-05T03:11:54.998Z,4.88
2022-08-05T03:14:13.516Z,5.40
2022-08-05T03:16:40.673Z,5.65
2022-08-05T03:19:17.058Z,6.78
2022-08-05T03:21:54.514Z,5.95
2022-08-05T03:24:29.447Z,6.82
2022-08-05T03:26:57.421Z,7.22
2022-08-05T03:29:24.545Z,6.78
2022-08-05T03:32:12.215Z,6.88
2022-08-05T03:34:42.230Z,6.93
2022-08-05T03:37:18.558Z,7.75
2022-08-05T03:40:01.101Z,6.95
2022-08-05T03:42:29.301Z,6.25
2022-08-05T03:44:59.009Z,6.50
2022-08-05T03:47:30.653Z,6.43
2022-08-05T03:50:02.127Z,6.43
2022-08-05T03:52:49.385Z,7.28
2022-08-05T03:56:04.251Z,7.15
2022-08-05T03:58:28.944Z,7.80
2022-08-05T04:00:59.922Z,7.82
2022-08-05T04:03:29.423Z,8.82
2022-08-05T04:05:58.090Z,8.13
2022-08-05T04:08:34.858Z,8.70
2022-08-05T04:11:05.163Z,10.02
2022-08-05T04:13:50.036Z,8.85
2022-08-05T04:16:25.521Z,9.18
2022-08-05T04:19:00.065Z,10.45
2022-08-05T04:22:05.735Z,10.38
2022-08-05T04:24:19.703Z,10.07
2022-08-05T04:26:49.462Z,10.25
2022-08-05T04:29:16.515Z,10.45
2022-08-05T04:31:43.096Z,10.98
2022-08-05T04:34:33.031Z,11.25
2022-08-05T04:36:56.463Z,11.95
2022-08-05T04:39:23.348Z,13.07
2022-08-05T04:41:50.930Z,13.57
2022-08-05T04:44:21.297Z,13.43
2022-08-05T04:46:56.642Z,14.38
2022-08-05T04:49:24.493Z,15.23
2022-08-05T04:52:05.053Z,15.23
2022-08-05T04:57:00.603Z,14.95
2022-08-05T04:59:39.131Z,16.38
2022-08-05T05:02:37.403Z,16.67
2022-08-05T05:05:02.753Z,15.65
2022-08-05T05:07:32.103Z,14.30
2022-08-05T05:09:59.662Z,15.45
2022-08-05T05:14:55.659Z,16.33
2022-08-05T05:17:24.582Z,15.48
2022-08-05T05:19:55.176Z,17.80
2022-08-05T05:22:26.322Z,16.67
2022-08-05T05:24:59.982Z,16.92
2022-08-05T05:27:44.395Z,16.95
2022-08-05T05:30:15.508Z,17.83
2022-08-05T05:32:55.875Z,18.65
2022-08-05T05:35:23.158Z,17.58
2022-08-05T05:37:59.857Z,18.65
2022-08-05T05:40:29.505Z,18.13
2022-08-05T05:42:56.899Z,17.23
2022-08-05T05:45:24.731Z,15.95
2022-08-05T05:48:06.052Z,15.05
2022-08-05T05:50:41.279Z,14.93
2022-08-05T05:53:21.436Z,14.43
2022-08-05T05:55:52.141Z,14.80
2022-08-05T05:58:30.268Z,14.13
2022-08-05T06:01:12.297Z,13.73
2022-08-05T06:04:01.101Z,13.05
2022-08-05T06:06:27.948Z,11.75
2022-08-05T06:08:58.213Z,12.82
2022-08-05T06:11:24.739Z,12.32
2022-08-05T06:13:53.965Z,11.43
2022-08-05T06:16:29.348Z,12.43
2022-08-05T06:19:01.273Z,12.77
2022-08-05T06:21:37.141Z,11.95
2022-08-05T06:24:11.472Z,12.65
2022-08-05T06:26:51.059Z,12.70
2022-08-05T06:29:45.370Z,13.68
2022-08-05T06:32:21.441Z,14.93
2022-08-05T06:34:56.155Z,14.15
2022-08-05T06:37:56.462Z,15.75
2022-08-05T06:40:17.883Z,14.90
2022-08-05T06:42:48.096Z,15.32
2022-08-05T06:45:21.277Z,14.45
2022-08-05T06:48:35.995Z,15.25
2022-08-05T06:50:52.481Z,15.88
2022-08-05T06:53:22.541Z,16.80
2022-08-05T06:55:54.707Z,15.13
2022-08-05T06:58:29.629Z,14.53
2022-08-05T07:01:02.730Z,14.27
2022-08-05T07:03:32.704Z,15.07
2022-08-05T07:06:05.894Z,14.90
2022-08-05T07:08:42.967Z,14.25
2022-08-05T07:11:15.244Z,14.18
2022-08-05T07:14:01.262Z,13.00
2022-08-05T07:18:00.691Z,14.13
2022-08-05T07:22:27.891Z,13.75
2022-08-05T07:25:21.909Z,14.07
2022-08-05T07:27:58.605Z,14.05
2022-08-05T07:30:33.741Z,14.68
2022-08-05T07:33:10.010Z,16.17
2022-08-05T07:36:02.812Z,16.38
2022-08-05T07:38:32.322Z,17.60
2022-08-05T07:42:09.648Z,17.15
2022-08-05T07:43:58.334Z,16.98
2022-08-05T07:46:27.104Z,18.15
2022-08-05T07:49:04.076Z,17.27
2022-08-05T07:51:40.768Z,18.02
2022-08-05T07:54:15.557Z,16.15
2022-08-05T07:57:01.694Z,16.77
2022-08-05T07:59:38.742Z,15.27
2022-08-05T08:02:16.686Z,13.85
2022-08-05T08:04:50.543Z,13.68
2022-08-05T08:07:22.407Z,14.23
2022-08-05T08:09:54.997Z,12.75
2022-08-05T08:12:33.507Z,13.23
2022-08-05T08:15:15.047Z,12.80
2022-08-05T08:17:49.637Z,14.70
2022-08-05T08:21:00.453Z,13.88
2022-08-05T08:23:59.935Z,12.02
2022-08-05T08:26:00.503Z,11.93
2022-08-05T08:28:37.138Z,13.45
2022-08-05T08:31:09.546Z,13.63
2022-08-05T08:33:41.370Z,14.00
2022-08-05T08:36:38.405Z,15.45
2022-08-05T08:38:55.713Z,14.77
2022-08-05T08:41:26.212Z,15.47
2022-08-05T08:45:17.714Z,15.47
2022-08-05T08:47:21.671Z,16.70
2022-08-05T08:50:05.720Z,15.77
2022-08-05T08:52:41.170Z,16.38
2022-08-05T08:55:14.209Z,17.02
2022-08-05T08:57:58.328Z,16.85
2022-08-05T09:00:26.213Z,16.65
2022-08-05T09:02:54.357Z,16.33
2022-08-05T09:05:38.395Z,16.50
2022-08-05T09:08:09.832Z,15.35
2022-08-05T09:10:36.835Z,14.95
2022-08-05T09:13:07.144Z,14.10
2022-08-05T09:15:36.998Z,14.90
2022-08-05T09:18:06.343Z,14.68
2022-08-05T09:20:37.307Z,14.60
2022-08-05T09:23:19.042Z,14.27
2022-08-05T09:26:06.837Z,13.15
2022-08-05T09:28:37.927Z,12.18
2022-08-05T09:31:22.806Z,10.75
2022-08-05T09:34:10.392Z,11.50
2022-08-05T09:36:56.268Z,11.18
2022-08-05T09:39:41.990Z,10.82
2022-08-05T09:42:23.473Z,9.63
2022-08-05T09:44:56.580Z,7.55
2022-08-05T09:47:34.914Z,7.53
2022-08-05T09:50:08.361Z,5.88
2022-08-05T09:52:36.192Z,6.35
2022-08-05T09:55:58.678Z,5.88
2022-08-05T09:57:59.844Z,5.63
2022-08-05T10:00:27.593Z,5.35
2022-08-05T10:05:28.561Z,4.82
2022-08-05T10:08:11.210Z,5.82
2022-08-05T10:10:50.181Z,5.15
2022-08-05T10:13:47.751Z,4.85
2022-08-05T10:16:41.787Z,4.90
2022-08-05T10:19:23.779Z,4.85
2022-08-05T10:22:09.079Z,4.70
2022-08-05T10:24:42.283Z,5.00
2022-08-05T10:27:14.333Z,4.85
2022-08-05T10:30:06.593Z,5.43
2022-08-05T10:32:52.338Z,5.88
2022-08-05T10:35:18.721Z,6.47
2022-08-05T10:37:47.526Z,6.38
2022-08-05T10:40:39.006Z,6.38
2022-08-05T10:43:36.324Z,6.38
2022-08-05T10:46:06.964Z,5.88
2022-08-05T10:48:58.164Z,5.80
2022-08-05T10:51:57.795Z,5.88
2022-08-05T10:55:02.293Z,5.90
2022-08-05T10:57:29.375Z,5.70
2022-08-05T11:00:14.778Z,5.50
2022-08-05T11:03:24.291Z,6.10
2022-08-05T11:06:05.159Z,5.57
2022-08-05T11:08:37.182Z,6.30
2022-08-05T11:11:44.356Z,5.35
2022-08-05T11:14:49.471Z,4.88
2022-08-05T11:17:59.859Z,5.10
2022-08-05T11:20:43.894Z,5.03
2022-08-05T11:23:33.223Z,5.10
2022-08-05T11:26:29.133Z,4.97
2022-08-05T11:29:12.634Z,4.70
2022-08-05T11:31:57.608Z,4.50
2022-08-05T11:34:50.882Z,3.58
2022-08-05T11:38:29.585Z,3.45
2022-08-05T11:41:00.356Z,3.50
2022-08-05T11:44:00.875Z,3.75
2022-08-05T11:46:32.553Z,3.30
2022-08-05T11:49:00.774Z,4.53
2022-08-05T11:51:43.715Z,3.88
2022-08-05T11:54:37.979Z,4.25
2022-08-05T11:57:07.942Z,4.63
2022-08-05T11:59:51.546Z,4.55
2022-08-05T12:02:30.524Z,4.80
2022-08-05T12:05:07.939Z,3.90
2022-08-05T12:08:08.264Z,4.10
2022-08-05T12:10:43.710Z,3.20
2022-08-05T12:13:28.141Z,3.58
2022-08-05T12:16:14.704Z,3.95
2022-08-05T12:18:48.683Z,3.72
2022-08-05T12:21:49.946Z,3.17
2022-08-05T12:24:19.345Z,2.88
2022-08-05T12:29:22.898Z,3.20
2022-08-05T12:31:53.596Z,2.50
2022-08-05T12:34:28.392Z,3.30
2022-08-05T12:36:57.114Z,2.58
2022-08-05T12:39:34.348Z,2.20
2022-08-05T12:42:09.037Z,2.45
2022-08-05T12:44:35.957Z,2.70
2022-08-05T12:47:02.910Z,2.13
2022-08-05T12:50:03.836Z,2.80
2022-08-05T12:52:41.734Z,3.25
2022-08-05T12:55:22.813Z,2.60
2022-08-05T12:58:50.807Z,2.30
2022-08-05T13:02:01.802Z,2.60
2022-08-05T13:03:39.002Z,2.00
2022-08-05T13:06:12.388Z,1.98
2022-08-05T13:08:40.142Z,2.28
2022-08-05T13:11:07.819Z,1.75
2022-08-05T13:14:05.133Z,2.33
2022-08-05T13:16:25.550Z,1.75
2022-08-05T13:18:58.360Z,2.33
2022-08-05T13:21:27.816Z,1.55
2022-08-05T13:23:55.352Z,1.70
2022-08-05T13:26:27.201Z,2.15
2022-08-05T13:28:57.351Z,1.65
2022-08-05T13:31:34.082Z,2.10
2022-08-05T13:34:22.766Z,1.90
2022-08-05T13:36:52.634Z,2.03
2022-08-05T13:40:13.775Z,1.98
2022-08-05T13:42:06.735Z,2.05
2022-08-05T13:44:34.645Z,2.13
2022-08-05T13:47:08.321Z,2.30
2022-08-05T13:49:35.946Z,1.98
2022-08-05T13:52:19.888Z,2.30
2022-08-05T13:54:56.599Z,2.60
2022-08-05T13:57:26.175Z,2.05
2022-08-05T14:00:12.808Z,2.35
2022-08-05T14:02:39.621Z,2.05
2022-08-05T14:05:15.447Z,1.90
2022-08-05T14:07:59.634Z,2.00
2022-08-05T14:10:32.344Z,2.03
2022-08-05T14:12:59.505Z,1.73
2022-08-05T14:16:04.602Z,2.03
2022-08-05T14:18:17.668Z,1.75
2022-08-05T14:20:54.612Z,1.90
2022-08-05T14:23:25.782Z,1.65
2022-08-05T14:25:58.718Z,1.50
2022-08-05T14:28:30.658Z,1.63
2022-08-05T14:30:58.677Z,2.00
2022-08-05T14:33:25.539Z,1.38
2022-08-05T14:35:54.487Z,1.48
2022-08-05T14:41:00.440Z,1.92
2022-08-05T14:43:59.480Z,2.28
2022-08-05T14:46:13.749Z,1.80
2022-08-05T14:48:40.550Z,1.70
2022-08-05T14:51:09.101Z,1.95
2022-08-05T14:53:44.633Z,1.50
2022-08-05T14:56:12.052Z,2.30
2022-08-05T14:58:47.607Z,1.70
2022-08-05T15:01:16.002Z,1.67
2022-08-05T15:03:44.210Z,1.92
2022-08-05T15:06:15.083Z,1.80
2022-08-05T15:08:59.705Z,1.50
2022-08-05T15:11:52.296Z,1.63
2022-08-05T15:14:33.584Z,1.40
2022-08-05T15:17:10.038Z,1.27
2022-08-05T15:19:57.412Z,1.40
2022-08-05T15:22:27.017Z,1.40
2022-08-05T15:24:55.124Z,1.60
2022-08-05T15:27:21.724Z,1.00
2022-08-05T15:29:52.543Z,1.40
2022-08-05T15:32:20.849Z,1.27
2022-08-05T15:34:54.236Z,1.25
2022-08-05T15:38:32.989Z,1.10
2022-08-05T15:40:59.157Z,1.33
2022-08-05T15:43:01.644Z,1.08
2022-08-05T15:45:38.892Z,0.82
2022-08-05T15:48:05.790Z,0.80
2022-08-05T15:50:33.485Z,0.50
2022-08-05T15:53:04.151Z,0.43
2022-08-05T15:56:02.687Z,0.50
2022-08-05T15:58:23.158Z,0.40
2022-08-05T16:01:11.881Z,0.57
2022-08-05T16:03:52.373Z,0.50
2022-08-05T16:06:26.310Z,0.47
2022-08-05T16:08:55.571Z,0.43
2022-08-05T16:11:39.988Z,0.40
2022-08-05T16:14:08.973Z,0.50
2022-08-05T16:19:09.766Z,0.63
2022-08-05T16:21:58.267Z,0.30
2022-08-05T16:24:41.165Z,0.57
2022-08-05T16:27:16.084Z,0.35
2022-08-05T16:29:50.003Z,0.50
2022-08-05T16:32:29.254Z,0.60
2022-08-05T16:34:58.888Z,0.45
2022-08-05T16:38:02.549Z,0.40
2022-08-05T16:40:26.622Z,0.45
2022-08-05T16:42:56.052Z,0.50
2022-08-05T16:46:06.669Z,0.40
2022-08-05T16:48:10.794Z,0.43
2022-08-05T16:50:52.227Z,0.70
2022-08-05T16:53:22.509Z,0.50
2022-08-05T16:55:49.847Z,0.50
2022-08-05T16:58:19.961Z,0.43
2022-08-05T17:00:48.156Z,0.50
2022-08-05T17:03:20.616Z,0.47
2022-08-05T17:05:53.618Z,0.47
2022-08-05T17:08:33.636Z,0.60
2022-08-05T17:11:03.823Z,0.65
2022-08-05T17:13:37.855Z,0.75
2022-08-05T17:16:29.689Z,0.60
2022-08-05T17:18:55.303Z,0.55
2022-08-05T17:21:23.741Z,0.50
2022-08-05T17:24:04.779Z,0.40
2022-08-05T17:26:36.062Z,0.50
2022-08-05T17:29:07.483Z,0.30
2022-08-05T17:31:56.848Z,0.40
2022-08-05T17:34:30.175Z,0.50
2022-08-05T17:36:59.924Z,0.52
2022-08-05T17:39:29.796Z,0.30
2022-08-05T17:42:19.921Z,0.63
2022-08-05T17:44:50.056Z,0.52
2022-08-05T17:47:22.601Z,0.63
2022-08-05T17:49:59.801Z,0.60
2022-08-05T17:52:30.570Z,0.50
2022-08-05T17:54:57.941Z,0.35
2022-08-05T17:57:24.645Z,0.60
2022-08-05T18:00:04.918Z,0.77
2022-08-05T18:02:34.364Z,0.50
2022-08-05T18:05:03.704Z,0.37
2022-08-05T18:07:41.657Z,0.30
2022-08-05T18:10:11.287Z,0.50
2022-08-05T18:15:22.918Z,0.93
2022-08-05T18:17:58.890Z,0.50
2022-08-05T18:20:32.678Z,0.45
2022-08-05T18:23:11.270Z,0.40
2022-08-05T18:25:45.262Z,0.55
2022-08-05T18:28:22.187Z,0.60
2022-08-05T18:30:56.137Z,0.57
2022-08-05T18:33:24.082Z,0.50
2022-08-05T18:36:03.409Z,0.40
2022-08-05T18:38:30.817Z,0.50
2022-08-05T18:41:54.250Z,0.55
2022-08-05T18:43:53.267Z,0.50
2022-08-05T18:46:21.831Z,0.50
2022-08-05T18:48:53.587Z,0.50
2022-08-05T18:52:05.203Z,0.63
2022-08-05T18:54:31.643Z,0.40
2022-08-05T18:57:01.983Z,0.60
2022-08-05T18:59:44.357Z,0.70
2022-08-05T19:02:27.997Z,0.55
2022-08-05T19:05:02.982Z,0.68
2022-08-05T19:07:46.110Z,0.60
2022-08-05T19:12:40.804Z,0.80
2022-08-05T19:15:25.233Z,0.50
2022-08-05T19:18:09.645Z,0.60
2022-08-05T19:20:41.409Z,0.70
2022-08-05T19:24:06.210Z,0.88
2022-08-05T19:26:02.214Z,0.80
2022-08-05T19:28:30.831Z,0.50
2022-08-05T19:30:58.411Z,0.52
2022-08-05T19:33:35.283Z,0.60
2022-08-05T19:36:06.979Z,0.80
2022-08-05T19:38:37.302Z,0.50
2022-08-05T19:41:09.024Z,0.60
2022-08-05T19:44:05.296Z,0.80
2022-08-05T19:46:29.048Z,0.85
2022-08-05T19:48:56.402Z,0.50
2022-08-05T19:51:59.802Z,0.70
2022-08-05T19:54:21.720Z,0.60
2022-08-05T19:56:58.037Z,0.50
2022-08-05T19:59:54.586Z,0.75
2022-08-05T20:02:12.750Z,0.50
2022-08-05T20:04:42.971Z,0.60
2022-08-05T20:07:13.693Z,0.88
2022-08-05T20:09:55.092Z,1.00
2022-08-05T20:12:25.131Z,0.80
2022-08-05T20:14:52.978Z,0.80
2022-08-05T20:17:23.497Z,0.80
2022-08-05T20:19:51.048Z,0.80
2022-08-05T20:22:24.000Z,1.17
2022-08-05T20:24:53.758Z,0.80
2022-08-05T20:27:21.005Z,0.70
2022-08-05T20:29:58.088Z,0.55
2022-08-05T20:32:27.071Z,0.75
2022-08-05T20:34:54.196Z,0.68
2022-08-05T20:38:04.950Z,0.80
2022-08-05T20:40:08.366Z,0.60
2022-08-05T20:42:35.392Z,0.63
2022-08-05T20:45:02.561Z,0.80
2022-08-05T20:47:32.272Z,0.70
2022-08-05T20:49:59.411Z,0.68
2022-08-05T20:52:26.533Z,0.70
2022-08-05T20:55:15.976Z,1.00
2022-08-05T20:57:43.488Z,0.93
2022-08-05T21:00:20.858Z,0.73
2022-08-05T21:03:06.243Z,0.70
2022-08-05T21:05:47.436Z,0.70
2022-08-05T21:08:20.888Z,0.60
2022-08-05T21:10:53.642Z,0.65
2022-08-05T21:13:26.124Z,0.70
2022-08-05T21:16:06.989Z,0.50
2022-08-05T21:18:34.332Z,0.60
2022-08-05T21:21:02.386Z,0.65
2022-08-05T21:23:28.849Z,0.50
2022-08-05T21:26:04.215Z,0.70
2022-08-05T21:28:50.569Z,0.82
2022-08-05T21:31:18.096Z,1.60
2022-08-05T21:33:47.614Z,0.80
2022-08-05T21:36:27.744Z,0.70
2022-08-05T21:38:56.928Z,1.10
2022-08-05T21:41:25.933Z,0.70
2022-08-05T21:44:03.870Z,0.65
2022-08-05T21:46:34.671Z,0.70
2022-08-05T21:49:02.284Z,0.95
2022-08-05T21:52:22.825Z,1.40
2022-08-05T21:54:17.929Z,0.90
2022-08-05T21:57:15.418Z,1.00
2022-08-05T22:00:02.104Z,1.00
2022-08-05T22:02:30.035Z,1.23
2022-08-05T22:04:58.602Z,1.10
2022-08-05T22:07:40.080Z,1.00
2022-08-05T22:10:13.663Z,0.98
2022-08-05T22:12:45.063Z,1.10
2022-08-05T22:16:00.852Z,0.75
2022-08-05T22:18:04.921Z,0.93
2022-08-05T22:20:31.846Z,0.90
2022-08-05T22:23:21.520Z,0.63
2022-08-05T22:26:09.273Z,0.57
2022-08-05T22:28:38.197Z,1.00
2022-08-05T22:31:06.275Z,1.00
2022-08-05T22:33:55.384Z,1.23
2022-08-05T22:36:19.658Z,0.80
2022-08-05T22:38:51.379Z,0.70
2022-08-05T22:42:04.223Z,0.68
2022-08-05T22:44:07.925Z,0.80
2022-08-05T22:46:40.104Z,0.80
2022-08-05T22:49:12.388Z,0.80
2022-08-05T22:52:05.558Z,0.70
2022-08-05T22:54:34.973Z,0.63
2022-08-05T22:57:01.688Z,0.68
2022-08-05T22:59:48.520Z,0.52
2022-08-05T23:02:17.652Z,0.60
2022-08-05T23:04:51.567Z,0.68
2022-08-05T23:07:21.952Z,0.63
2022-08-05T23:09:57.728Z,1.13
2022-08-05T23:12:32.710Z,0.90
2022-08-05T23:15:03.431Z,0.90
2022-08-05T23:17:35.106Z,0.70
2022-08-05T23:20:17.412Z,0.60
2022-08-05T23:22:48.247Z,0.68
2022-08-05T23:25:17.049Z,0.70
2022-08-05T23:28:03.543Z,0.80
2022-08-05T23:30:40.500Z,0.90
2022-08-05T23:33:19.069Z,0.70
2022-08-05T23:35:52.111Z,0.85
2022-08-05T23:38:22.378Z,0.85
2022-08-05T23:40:49.365Z,0.98
2022-08-05T23:43:25.423Z,1.00
2022-08-05T23:46:03.447Z,0.93
2022-08-05T23:48:29.979Z,0.90
2022-08-05T23:50:56.546Z,0.80
2022-08-05T23:53:46.156Z,1.10
2022-08-05T23:56:11.758Z,1.15
2022-08-05T23:58:38.655Z,1.00
